createdAt,value
2022-10-01T00:00:04.858Z,16.39
2022-10-01T00:02:31.266Z,16.43
2022-10-01T00:04:58.115Z,16.57
2022-10-01T00:07:24.447Z,16.46
2022-10-01T00:09:50.826Z,15.79
2022-10-01T00:12:17.146Z,16.25
2022-10-01T00:14:44.534Z,15.93
2022-10-01T00:17:10.923Z,15.67
2022-10-01T00:19:37.294Z,15.69
2022-10-01T00:22:03.750Z,15.48
2022-10-01T00:24:30.078Z,15.87
2022-10-01T00:26:57.658Z,15.54
2022-10-01T00:29:23.983Z,15.59
2022-10-01T00:31:50.429Z,15.11
2022-10-01T00:34:16.783Z,15.32
2022-10-01T00:36:43.199Z,15.41
2022-10-01T00:39:11.928Z,15.25
2022-10-01T00:41:38.481Z,15.07
2022-10-01T00:44:28.649Z,15.30
2022-10-01T00:46:58.339Z,15.33
2022-10-01T00:49:27.827Z,15.42
2022-10-01T00:51:58.023Z,15.12
2022-10-01T00:54:31.569Z,15.37
2022-10-01T00:57:00.662Z,15.42
2022-10-01T00:59:28.435Z,15.82
2022-10-01T01:01:54.903Z,15.70
2022-10-01T01:04:21.383Z,15.73
2022-10-01T01:06:59.448Z,15.70
2022-10-01T01:09:36.145Z,15.76
2022-10-01T01:12:40.007Z,15.68
2022-10-01T01:15:20.339Z,15.56
2022-10-01T01:17:57.582Z,15.95
2022-10-01T01:20:57.277Z,15.71
2022-10-01T01:23:29.170Z,15.57
2022-10-01T01:26:10.491Z,15.59
2022-10-01T01:28:47.646Z,15.24
2022-10-01T01:31:18.608Z,15.39
2022-10-01T01:33:49.727Z,15.65
2022-10-01T01:36:20.245Z,15.47
2022-10-01T01:38:51.923Z,15.42
2022-10-01T01:41:20.686Z,15.61
2022-10-01T01:43:51.255Z,15.65
2022-10-01T01:46:19.023Z,15.45
2022-10-01T01:48:50.835Z,15.66
2022-10-01T01:51:24.816Z,15.19
2022-10-01T01:53:51.336Z,15.18
2022-10-01T01:56:18.106Z,15.26
2022-10-01T01:58:45.640Z,14.88
2022-10-01T02:01:41.257Z,14.97
2022-10-01T02:04:34.095Z,14.53
2022-10-01T02:07:16.956Z,15.00
2022-10-01T02:09:53.118Z,14.76
2022-10-01T02:12:34.265Z,14.70
2022-10-01T02:15:13.347Z,14.67
2022-10-01T02:18:00.982Z,14.88
2022-10-01T02:20:45.590Z,14.63
2022-10-01T02:23:17.100Z,14.53
2022-10-01T02:25:49.717Z,14.56
2022-10-01T02:28:21.233Z,14.78
2022-10-01T02:30:49.423Z,14.48
2022-10-01T02:33:22.811Z,14.64
2022-10-01T02:35:53.160Z,14.61
2022-10-01T02:38:23.117Z,14.78
2022-10-01T02:40:53.729Z,14.66
2022-10-01T02:43:27.978Z,14.75
2022-10-01T02:46:00.011Z,14.71
2022-10-01T02:48:27.122Z,14.47
2022-10-01T02:51:04.220Z,14.44
2022-10-01T02:53:37.330Z,14.65
2022-10-01T02:56:05.843Z,14.71
2022-10-01T02:58:32.312Z,14.35
2022-10-01T03:00:58.665Z,14.48
2022-10-01T03:03:26.062Z,14.63
2022-10-01T03:05:52.402Z,14.52
2022-10-01T03:08:19.455Z,14.35
2022-10-01T03:10:46.889Z,14.45
2022-10-01T03:13:13.677Z,14.69
2022-10-01T03:15:40.135Z,14.51
2022-10-01T03:18:06.502Z,14.27
2022-10-01T03:20:32.799Z,14.52
2022-10-01T03:22:59.117Z,14.62
2022-10-01T03:25:25.436Z,14.89
2022-10-01T03:27:52.074Z,14.82
2022-10-01T03:30:18.664Z,14.78
2022-10-01T03:32:44.993Z,14.81
2022-10-01T03:35:11.424Z,14.98
2022-10-01T03:37:37.786Z,14.91
2022-10-01T03:40:04.768Z,15.14
2022-10-01T03:42:31.114Z,15.09
2022-10-01T03:44:57.447Z,14.69
2022-10-01T03:47:24.254Z,14.59
2022-10-01T03:49:50.544Z,14.99
2022-10-01T03:52:16.915Z,14.98
2022-10-01T03:54:43.221Z,14.95
2022-10-01T03:57:09.573Z,14.40
2022-10-01T03:59:36.083Z,14.90
2022-10-01T04:02:02.810Z,14.80
2022-10-01T04:04:29.228Z,15.02
2022-10-01T04:06:55.588Z,15.08
2022-10-01T04:09:21.959Z,15.26
2022-10-01T04:11:48.690Z,15.20
2022-10-01T04:14:14.983Z,15.43
2022-10-01T04:16:41.310Z,15.32
2022-10-01T04:19:07.696Z,15.17
2022-10-01T04:21:34.274Z,15.14
2022-10-01T04:24:02.980Z,15.00
2022-10-01T04:26:29.288Z,15.26
2022-10-01T04:28:55.637Z,15.01
2022-10-01T04:31:24.982Z,15.18
2022-10-01T04:33:56.554Z,15.45
2022-10-01T04:36:24.035Z,15.25
2022-10-01T04:38:52.246Z,15.40
2022-10-01T04:41:19.475Z,15.28
2022-10-01T04:43:46.003Z,15.23
2022-10-01T04:46:12.407Z,15.13
2022-10-01T04:48:38.760Z,15.17
2022-10-01T04:51:05.172Z,15.39
2022-10-01T04:53:31.635Z,15.36
2022-10-01T04:55:58.016Z,14.92
2022-10-01T04:58:24.442Z,15.12
2022-10-01T05:00:50.878Z,15.22
2022-10-01T05:03:17.782Z,15.22
2022-10-01T05:05:44.366Z,15.48
2022-10-01T05:08:10.695Z,15.30
2022-10-01T05:10:37.088Z,15.42
2022-10-01T05:13:03.438Z,15.11
2022-10-01T05:15:30.529Z,15.28
2022-10-01T05:17:57.006Z,15.35
2022-10-01T05:20:26.039Z,15.58
2022-10-01T05:22:53.162Z,15.59
2022-10-01T05:25:19.871Z,15.43
2022-10-01T05:27:46.563Z,15.57
2022-10-01T05:30:17.343Z,15.43
2022-10-01T05:32:43.674Z,15.24
2022-10-01T05:35:09.990Z,15.36
2022-10-01T05:37:36.364Z,15.73
2022-10-01T05:40:02.896Z,15.47
2022-10-01T05:42:29.221Z,15.45
2022-10-01T05:44:55.985Z,15.27
2022-10-01T05:47:22.504Z,15.18
2022-10-01T05:49:48.818Z,15.49
2022-10-01T05:52:16.296Z,15.65
2022-10-01T05:54:42.792Z,15.58
2022-10-01T05:57:09.430Z,14.97
2022-10-01T05:59:35.892Z,14.96
2022-10-01T06:02:02.717Z,15.37
2022-10-01T06:04:29.167Z,15.88
2022-10-01T06:06:56.107Z,15.73
2022-10-01T06:09:22.529Z,15.53
2022-10-01T06:11:49.429Z,15.53
2022-10-01T06:14:16.362Z,15.09
2022-10-01T06:16:42.808Z,15.19
2022-10-01T06:19:09.177Z,15.46
2022-10-01T06:21:36.066Z,15.48
2022-10-01T06:24:02.654Z,15.65
2022-10-01T06:26:28.988Z,15.78
2022-10-01T06:28:55.301Z,15.84
2022-10-01T06:31:21.998Z,14.95
2022-10-01T06:33:48.498Z,15.76
2022-10-01T06:36:14.932Z,15.72
2022-10-01T06:38:42.837Z,15.67
2022-10-01T06:41:09.532Z,15.80
2022-10-01T06:43:36.211Z,16.05
2022-10-01T06:46:04.971Z,16.09
2022-10-01T06:48:32.355Z,16.12
2022-10-01T06:50:59.403Z,16.17
2022-10-01T06:53:27.681Z,15.85
2022-10-01T06:55:54.489Z,16.22
2022-10-01T06:58:22.705Z,16.28
2022-10-01T07:00:49.750Z,16.26
2022-10-01T07:03:21.680Z,16.00
2022-10-01T07:05:50.062Z,16.04
2022-10-01T07:08:17.649Z,16.16
2022-10-01T07:10:44.324Z,16.21
2022-10-01T07:13:12.050Z,15.86
2022-10-01T07:15:38.752Z,15.78
2022-10-01T07:18:06.218Z,15.92
2022-10-01T07:20:35.831Z,15.67
2022-10-01T07:23:02.508Z,14.86
2022-10-01T07:25:29.593Z,15.90
2022-10-01T07:28:04.495Z,15.66
2022-10-01T07:30:32.342Z,15.92
2022-10-01T07:32:59.116Z,15.72
2022-10-01T07:35:25.775Z,15.76
2022-10-01T07:37:53.562Z,15.73
2022-10-01T07:40:19.861Z,15.25
2022-10-01T07:42:54.563Z,16.17
2022-10-01T07:45:24.862Z,16.26
2022-10-01T07:47:59.702Z,16.07
2022-10-01T07:50:29.456Z,16.02
2022-10-01T07:52:57.870Z,16.16
2022-10-01T07:55:26.871Z,16.05
2022-10-01T07:57:55.060Z,16.24
2022-10-01T08:00:22.694Z,16.25
2022-10-01T08:02:51.221Z,16.25
2022-10-01T08:05:20.079Z,16.21
2022-10-01T08:07:47.665Z,16.38
2022-10-01T08:10:17.419Z,16.27
2022-10-01T08:12:44.185Z,15.90
2022-10-01T08:15:12.104Z,16.19
2022-10-01T08:17:42.030Z,16.34
2022-10-01T08:20:10.638Z,16.29
2022-10-01T08:22:41.658Z,15.93
2022-10-01T08:25:08.906Z,16.11
2022-10-01T08:27:35.345Z,16.25
2022-10-01T08:30:01.694Z,16.16
2022-10-01T08:32:28.225Z,15.97
2022-10-01T08:34:59.837Z,16.40
2022-10-01T08:37:28.467Z,16.54
2022-10-01T08:39:56.416Z,16.69
2022-10-01T08:42:22.746Z,16.83
2022-10-01T08:44:51.945Z,16.75
2022-10-01T08:47:35.535Z,16.58
2022-10-01T08:50:28.655Z,16.20
2022-10-01T08:53:01.565Z,16.49
2022-10-01T08:55:36.052Z,16.19
2022-10-01T08:58:05.772Z,16.50
2022-10-01T09:00:36.999Z,16.66
2022-10-01T09:03:11.720Z,16.64
2022-10-01T09:05:41.216Z,16.63
2022-10-01T09:08:43.593Z,16.61
2022-10-01T09:11:52.240Z,16.68
2022-10-01T09:14:40.594Z,16.61
2022-10-01T09:17:30.490Z,16.52
2022-10-01T09:20:06.426Z,16.46
2022-10-01T09:22:47.723Z,16.74
2022-10-01T09:25:21.997Z,16.74
2022-10-01T09:27:49.635Z,16.85
2022-10-01T09:30:25.086Z,16.56
2022-10-01T09:33:09.018Z,16.84
2022-10-01T09:35:46.965Z,16.88
2022-10-01T09:38:21.829Z,16.75
2022-10-01T09:40:54.856Z,16.89
2022-10-01T09:43:33.068Z,17.01
2022-10-01T09:46:00.001Z,16.76
2022-10-01T09:48:49.363Z,17.09
2022-10-01T09:51:41.133Z,17.16
2022-10-01T09:54:17.949Z,17.15
2022-10-01T09:56:59.165Z,17.11
2022-10-01T09:59:34.425Z,17.58
2022-10-01T10:02:04.044Z,17.60
2022-10-01T10:04:30.952Z,17.63
2022-10-01T10:07:03.857Z,17.73
2022-10-01T10:09:33.088Z,17.77
2022-10-01T10:12:00.039Z,17.61
2022-10-01T10:14:33.753Z,18.13
2022-10-01T10:17:13.006Z,18.50
2022-10-01T10:19:41.100Z,18.31
2022-10-01T10:22:13.556Z,18.46
2022-10-01T10:24:39.927Z,18.54
2022-10-01T10:27:20.793Z,19.49
2022-10-01T10:29:47.246Z,21.07
2022-10-01T10:32:26.097Z,21.04
2022-10-01T10:35:02.042Z,20.36
2022-10-01T10:37:37.494Z,20.95
2022-10-01T10:40:08.143Z,21.59
2022-10-01T10:42:38.708Z,20.26
2022-10-01T10:45:16.367Z,19.38
2022-10-01T10:47:53.210Z,18.57
2022-10-01T10:50:35.997Z,18.84
2022-10-01T10:53:19.765Z,19.09
2022-10-01T10:56:03.766Z,18.64
2022-10-01T10:58:33.132Z,18.87
2022-10-01T11:01:05.985Z,18.89
2022-10-01T11:03:33.093Z,19.25
2022-10-01T11:06:09.270Z,20.32
2022-10-01T11:08:35.767Z,19.65
2022-10-01T11:11:07.319Z,19.55
2022-10-01T11:13:37.883Z,19.55
2022-10-01T11:16:25.317Z,19.39
2022-10-01T11:19:01.475Z,19.25
2022-10-01T11:21:34.192Z,19.45
2022-10-01T11:24:03.237Z,19.38
2022-10-01T11:26:53.512Z,19.00
2022-10-01T11:29:53.677Z,18.80
2022-10-01T11:32:35.885Z,18.19
2022-10-01T11:35:11.470Z,18.58
2022-10-01T11:37:49.425Z,18.77
2022-10-01T11:40:24.824Z,18.35
2022-10-01T11:42:57.536Z,18.71
2022-10-01T11:45:35.866Z,18.66
2022-10-01T11:48:10.375Z,18.58
2022-10-01T11:50:42.630Z,18.34
2022-10-01T11:53:21.972Z,18.60
2022-10-01T11:56:14.558Z,18.98
2022-10-01T11:59:03.161Z,19.09
2022-10-01T12:01:42.334Z,19.29
2022-10-01T12:04:25.301Z,19.24
2022-10-01T12:07:10.539Z,19.22
2022-10-01T12:09:54.660Z,19.43
2022-10-01T12:12:36.203Z,19.50
2022-10-01T12:15:26.708Z,19.65
2022-10-01T12:17:59.958Z,19.53
2022-10-01T12:20:41.256Z,19.58
2022-10-01T12:23:14.764Z,19.82
2022-10-01T12:25:54.910Z,19.69
2022-10-01T12:28:42.392Z,20.09
2022-10-01T12:31:34.587Z,20.29
2022-10-01T12:34:13.004Z,20.37
2022-10-01T12:36:42.563Z,20.41
2022-10-01T12:39:26.039Z,20.37
2022-10-01T12:42:13.755Z,20.07
2022-10-01T12:45:05.027Z,20.15
2022-10-01T12:47:42.866Z,20.39
2022-10-01T12:50:27.825Z,20.78
2022-10-01T12:53:02.608Z,21.13
2022-10-01T12:55:51.513Z,21.02
2022-10-01T12:58:36.384Z,21.47
2022-10-01T13:01:21.674Z,21.56
2022-10-01T13:04:20.413Z,21.75
2022-10-01T13:07:19.270Z,21.12
2022-10-01T13:09:57.771Z,20.74
2022-10-01T13:13:11.311Z,20.38
2022-10-01T13:15:40.942Z,20.31
2022-10-01T13:18:20.981Z,20.33
2022-10-01T13:21:06.636Z,20.75
2022-10-01T13:24:20.627Z,20.81
2022-10-01T13:26:51.848Z,20.78
2022-10-01T13:29:35.501Z,20.77
2022-10-01T13:32:30.804Z,20.91
2022-10-01T13:34:58.755Z,20.92
2022-10-01T13:37:40.425Z,21.23
2022-10-01T13:40:27.396Z,21.06
2022-10-01T13:42:58.108Z,20.76
2022-10-01T13:45:43.705Z,20.79
2022-10-01T13:48:09.986Z,21.06
2022-10-01T13:50:38.820Z,20.84
2022-10-01T13:53:20.872Z,21.03
2022-10-01T13:55:48.720Z,20.67
2022-10-01T13:58:31.376Z,21.23
2022-10-01T14:01:04.611Z,21.01
2022-10-01T14:03:39.151Z,21.36
2022-10-01T14:06:15.228Z,21.30
2022-10-01T14:08:47.578Z,21.32
2022-10-01T14:11:41.925Z,21.81
2022-10-01T14:15:13.170Z,21.88
2022-10-01T14:17:41.175Z,21.69
2022-10-01T14:20:08.522Z,21.48
2022-10-01T14:23:20.075Z,21.05
2022-10-01T14:25:56.793Z,21.69
2022-10-01T14:28:31.434Z,21.58
2022-10-01T14:31:28.934Z,21.57
2022-10-01T14:34:10.324Z,21.33
2022-10-01T14:36:44.056Z,21.23
2022-10-01T14:39:13.324Z,21.36
2022-10-01T14:41:39.706Z,21.22
2022-10-01T14:44:40.395Z,21.07
2022-10-01T14:47:24.420Z,21.20
2022-10-01T14:49:51.797Z,21.42
2022-10-01T14:52:27.744Z,20.99
2022-10-01T14:54:59.188Z,21.25
2022-10-01T14:57:49.391Z,21.15
2022-10-01T15:00:18.750Z,21.38
2022-10-01T15:02:51.957Z,21.30
2022-10-01T15:05:27.978Z,21.25
2022-10-01T15:07:54.468Z,21.20
2022-10-01T15:10:25.705Z,21.14
2022-10-01T15:12:53.953Z,20.86
2022-10-01T15:15:23.059Z,21.36
2022-10-01T15:17:50.529Z,21.23
2022-10-01T15:20:17.706Z,21.09
2022-10-01T15:22:47.540Z,21.22
2022-10-01T15:25:22.282Z,21.05
2022-10-01T15:27:49.521Z,21.15
2022-10-01T15:30:18.248Z,21.48
2022-10-01T15:32:46.649Z,21.46
2022-10-01T15:35:16.945Z,21.55
2022-10-01T15:37:49.326Z,21.32
2022-10-01T15:40:29.638Z,21.37
2022-10-01T15:43:07.988Z,21.46
2022-10-01T15:45:36.949Z,21.64
2022-10-01T15:48:03.435Z,21.72
2022-10-01T15:50:39.330Z,21.51
2022-10-01T15:53:19.614Z,21.91
2022-10-01T15:55:50.079Z,22.20
2022-10-01T15:58:32.193Z,22.36
2022-10-01T16:01:05.107Z,22.40
2022-10-01T16:03:40.662Z,21.97
2022-10-01T16:06:42.323Z,21.57
2022-10-01T16:09:18.923Z,21.37
2022-10-01T16:12:12.041Z,21.10
2022-10-01T16:14:43.908Z,21.17
2022-10-01T16:17:19.626Z,21.40
2022-10-01T16:19:52.110Z,21.12
2022-10-01T16:22:32.662Z,20.97
2022-10-01T16:25:25.826Z,20.74
2022-10-01T16:28:01.193Z,20.71
2022-10-01T16:30:29.588Z,20.25
2022-10-01T16:32:59.070Z,20.11
2022-10-01T16:35:31.040Z,20.19
2022-10-01T16:37:58.031Z,19.92
2022-10-01T16:40:30.604Z,19.80
2022-10-01T16:42:59.090Z,19.97
2022-10-01T16:45:29.509Z,19.96
2022-10-01T16:47:59.305Z,19.51
2022-10-01T16:50:26.015Z,19.79
2022-10-01T16:52:53.599Z,19.50
2022-10-01T16:55:24.290Z,19.79
2022-10-01T16:57:51.466Z,19.71
2022-10-01T17:00:20.098Z,19.55
2022-10-01T17:02:46.674Z,19.64
2022-10-01T17:05:18.502Z,19.69
2022-10-01T17:07:45.150Z,19.75
2022-10-01T17:10:13.482Z,19.28
2022-10-01T17:12:41.091Z,19.53
2022-10-01T17:15:11.917Z,19.45
2022-10-01T17:17:38.209Z,19.34
2022-10-01T17:20:05.315Z,19.41
2022-10-01T17:22:31.762Z,19.50
2022-10-01T17:24:58.130Z,19.20
2022-10-01T17:27:24.487Z,19.17
2022-10-01T17:29:50.795Z,18.99
2022-10-01T17:32:18.871Z,19.00
2022-10-01T17:34:45.929Z,18.89
2022-10-01T17:37:12.798Z,18.98
2022-10-01T17:39:42.967Z,18.83
2022-10-01T17:42:10.245Z,18.55
2022-10-01T17:44:36.961Z,18.82
2022-10-01T17:47:04.529Z,18.88
2022-10-01T17:49:31.117Z,18.55
2022-10-01T17:51:57.416Z,18.68
2022-10-01T17:54:24.270Z,18.75
2022-10-01T17:56:55.087Z,19.04
2022-10-01T17:59:21.739Z,18.69
2022-10-01T18:01:48.251Z,18.46
2022-10-01T18:04:14.674Z,18.54
2022-10-01T18:06:41.334Z,18.64
2022-10-01T18:09:07.934Z,18.60
2022-10-01T18:11:34.301Z,18.25
2022-10-01T18:14:00.683Z,18.64
2022-10-01T18:16:27.906Z,18.68
2022-10-01T18:21:46.365Z,18.45
2022-10-01T18:24:12.949Z,18.55
2022-10-01T18:26:39.731Z,18.48
2022-10-01T18:29:06.264Z,18.74
2022-10-01T18:31:38.663Z,18.61
2022-10-01T18:34:16.150Z,18.45
2022-10-01T18:36:57.888Z,18.37
2022-10-01T18:39:33.347Z,18.64
2022-10-01T18:42:02.360Z,18.64
2022-10-01T18:44:28.862Z,18.19
2022-10-01T18:47:06.975Z,18.42
2022-10-01T18:49:48.754Z,18.28
2022-10-01T18:52:47.812Z,18.36
2022-10-01T18:55:51.461Z,18.44
2022-10-01T18:58:36.263Z,18.31
2022-10-01T19:01:34.842Z,18.26
2022-10-01T19:04:19.774Z,17.89
2022-10-01T19:06:54.686Z,17.50
2022-10-01T19:09:27.108Z,18.28
2022-10-01T19:12:04.830Z,17.73
2022-10-01T19:15:00.483Z,18.17
2022-10-01T19:17:42.044Z,18.26
2022-10-01T19:20:33.299Z,18.19
2022-10-01T19:23:26.524Z,18.23
2022-10-01T19:26:10.328Z,18.08
2022-10-01T19:28:48.368Z,18.09
2022-10-01T19:31:20.804Z,18.17
2022-10-01T19:34:00.732Z,18.17
2022-10-01T19:36:34.768Z,18.09
2022-10-01T19:39:06.359Z,18.09
2022-10-01T19:41:38.831Z,18.09
2022-10-01T19:44:20.697Z,17.96
2022-10-01T19:46:49.655Z,18.04
2022-10-01T19:49:27.393Z,18.03
2022-10-01T19:52:03.266Z,18.05
2022-10-01T19:54:33.249Z,17.68
2022-10-01T19:57:24.753Z,17.85
2022-10-01T19:59:56.840Z,18.23
2022-10-01T20:02:38.011Z,18.24
2022-10-01T20:05:18.332Z,18.13
2022-10-01T20:08:11.147Z,17.42
2022-10-01T20:10:41.407Z,17.93
2022-10-01T20:13:33.460Z,17.85
2022-10-01T20:16:20.070Z,18.13
2022-10-01T20:18:58.756Z,18.16
2022-10-01T20:21:36.919Z,18.11
2022-10-01T20:24:14.367Z,17.96
2022-10-01T20:26:52.191Z,17.95
2022-10-01T20:29:29.529Z,17.89
2022-10-01T20:32:08.658Z,17.29
2022-10-01T20:34:44.936Z,17.75
2022-10-01T20:37:24.977Z,17.88
2022-10-01T20:39:59.815Z,17.63
2022-10-01T20:42:33.819Z,17.46
2022-10-01T20:45:00.765Z,17.74
2022-10-01T20:47:37.030Z,17.59
2022-10-01T20:50:24.647Z,17.78
2022-10-01T20:53:09.866Z,17.70
2022-10-01T20:55:41.406Z,17.73
2022-10-01T20:58:17.844Z,17.69
2022-10-01T21:00:46.003Z,17.28
2022-10-01T21:03:19.230Z,17.69
2022-10-01T21:05:53.536Z,17.49
2022-10-01T21:08:28.835Z,17.72
2022-10-01T21:10:57.836Z,17.72
2022-10-01T21:13:36.686Z,17.79
2022-10-01T21:16:20.753Z,17.59
2022-10-01T21:19:06.716Z,17.56
2022-10-01T21:21:56.622Z,17.56
2022-10-01T21:24:48.530Z,17.45
2022-10-01T21:27:33.792Z,17.53
2022-10-01T21:30:14.154Z,17.56
2022-10-01T21:33:08.390Z,17.60
2022-10-01T21:35:46.945Z,17.56
2022-10-01T21:38:19.398Z,17.58
2022-10-01T21:41:16.103Z,17.44
2022-10-01T21:43:56.557Z,17.27
2022-10-01T21:46:55.114Z,17.29
2022-10-01T21:49:39.618Z,17.40
2022-10-01T21:52:26.775Z,17.44
2022-10-01T21:55:05.274Z,17.40
2022-10-01T21:57:43.076Z,17.35
2022-10-01T22:00:22.816Z,17.45
2022-10-01T22:03:22.592Z,17.53
2022-10-01T22:06:01.006Z,17.54
2022-10-01T22:08:48.236Z,17.52
2022-10-01T22:11:22.304Z,17.40
2022-10-01T22:14:16.300Z,17.36
2022-10-01T22:16:48.530Z,17.13
2022-10-01T22:19:19.295Z,17.36
2022-10-01T22:21:50.473Z,17.39
2022-10-01T22:24:21.664Z,17.35
2022-10-01T22:26:57.553Z,17.25
2022-10-01T22:29:28.732Z,17.48
2022-10-01T22:32:01.250Z,17.42
2022-10-01T22:34:34.044Z,17.40
2022-10-01T22:37:07.921Z,17.41
2022-10-01T22:39:40.026Z,17.46
2022-10-01T22:42:14.157Z,17.43
2022-10-01T22:44:40.675Z,17.32
2022-10-01T22:47:22.515Z,17.50
2022-10-01T22:50:08.667Z,17.56
2022-10-01T22:52:44.088Z,17.61
2022-10-01T22:55:24.600Z,17.52
2022-10-01T22:57:51.181Z,17.55
2022-10-01T23:00:18.149Z,17.45
2022-10-01T23:03:06.355Z,17.42
2022-10-01T23:05:57.156Z,17.49
2022-10-01T23:08:45.142Z,17.39
2022-10-01T23:11:28.037Z,17.30
2022-10-01T23:14:30.431Z,17.50
2022-10-01T23:17:08.967Z,17.52
2022-10-01T23:19:48.185Z,17.34
2022-10-01T23:22:32.432Z,17.49
2022-10-01T23:25:13.985Z,17.58
2022-10-01T23:28:09.664Z,17.55
2022-10-01T23:30:57.300Z,17.69
2022-10-01T23:33:37.598Z,17.54
2022-10-01T23:36:21.689Z,17.36
2022-10-01T23:39:25.689Z,17.66
2022-10-01T23:42:02.003Z,17.68
2022-10-01T23:44:55.744Z,17.68
2022-10-01T23:47:30.870Z,17.70
2022-10-01T23:50:00.366Z,17.77
2022-10-01T23:52:38.401Z,17.41
2022-10-01T23:55:40.558Z,17.79
2022-10-01T23:58:13.188Z,17.77
